Terminal Aerodrome Forecast
Issued by NWS Cleveland, OH

Home | Current Version | Previous Version | Graphics & Text | Print | Product List | Glossary Off
Versions: 1 2 3 4 5 6 7 8 9 10 11 12 13 14

214
FTUS41 KCLE 231729
TAFCAK
TAF
KCAK 231729Z 2318/2418 23010KT 3SM -SHRA OVC015
      TEMPO 2318/2321 1SM TSRA OVC008CB
     FM232100 23012KT 5SM -SHRA OVC025
     FM240000 27008KT P6SM VCSH OVC015
     FM240300 31005KT P6SM OVC025
     FM240600 29005KT P6SM BKN035=

USA.gov is the U.S. government's official web portal to all federal, state and local government web resources and services.